Latest Conditions
At L.F.Wade Int. Airport
Recorded at 2:55 am
Mostly Cloudy
Temp.: 
19°C/67°F
Humidity: 
80%
Wind: 
ENE 13KT
or 15mph
UV Index: 
0
Island Observations
 
Observations
Saturday, May 15, 2021

Observations are in local time and taken at least once an hour, or upon the start and end of specified events such as showers and thunderstorms.

Time Sky / Weather Wind Speed/Gusts Temp. R.H. Pressure
     knots (mph)  °C (°F)  %  mb / "Hg
 02:55 Mostly Cloudy  ENE 13/0 (15/0) 19(67) 80 1019 / 30.09
 01:55 Overcast Showers ENE 14/0 (16/0) 19(66) 84 1019 / 30.10
 00:55 Mostly Cloudy  ENE 14/0 (16/0) 19(66) 84 1019 / 30.10
 23:55 Overcast Showers ENE 15/0 (17/0) 19(67) 84 1020 / 30.11
 23:26 Overcast Showers E 15/0 (17/0) 20(67) 83 1020 / 30.11
 22:55 Overcast  ENE 16/0 (18/0) 19(67) 84 1020 / 30.11
 22:32 Overcast Showers NE 15/0 (17/0) 20(67) 83 1019 / 30.10
 22:14 Overcast  ENE 16/0 (18/0) 20(67) 82 1019 / 30.10
 21:55 Overcast  ENE 17/0 (20/0) 20(68) 81 1019 / 30.09
 20:55 Overcast  ENE 15/0 (17/0) 20(67) 82 1018 / 30.07
 20:21 Overcast  ENE 16/0 (18/0) 20(68) 82 1019 / 30.08
 19:55 Overcast  ENE 15/0 (17/0) 20(68) 81 1018 / 30.07
 19:44 Mostly Cloudy  ENE 16/0 (18/0) 20(68) 81 1018 / 30.07
 18:55 Mostly Cloudy  NE 15/0 (17/0) 20(69) 81 1018 / 30.05
 17:55 Mostly Cloudy  NE 17/0 (20/0) 20(69) 81 1017 / 30.04
 17:03 Mostly Cloudy  NE 14/0 (16/0) 21(70) 77 1017 / 30.04
 16:55 Mostly Cloudy  NE 15/0 (17/0) 21(70) 77 1017 / 30.04
 16:11 Mostly Cloudy  NE 15/0 (17/0) 21(71) 78 1017 / 30.04
 15:55 Mostly Cloudy  NE 15/0 (17/0) 21(71) 76 1017 / 30.04
 15:36 Mostly Cloudy  NNE 14/0 (16/0) 21(71) 77 1017 / 30.04
 15:18 Mostly Cloudy  NE 13/0 (15/0) 22(72) 73 1017 / 30.04
 14:55 Mostly Cloudy  NE 13/0 (15/0) 22(72) 76 1017 / 30.04
 14:24 Mostly Cloudy  NNE 11/0 (13/0) 22(72) 78 1018 / 30.05
 13:55 Mostly Cloudy  N 9/0 (10/0) 22(72) 74 1018 / 30.06
 12:55 Mostly Cloudy  NNW 9/0 (10/0) 22(72) 72 1018 / 30.06
 11:55 Mostly Cloudy  NNW 8/0 (9/0) 22(71) 75 1018 / 30.07
 11:00 Overcast Showers N 6/0 (7/0) 21(70) 80 1018 / 30.06
 10:55 Overcast Showers NNW 10/0 (12/0) 21(70) 80 1018 / 30.06
 10:15 Overcast Showers NNW 11/0 (13/0) 21(69) 86 1018 / 30.05
 10:01 Overcast Showers NW 8/0 (9/0) 21(70) 84 1017 / 30.04
 09:55 Overcast Showers WNW 5/0 (6/0) 22(71) 83 1017 / 30.04
 08:55 Overcast  WSW 4/0 (5/0) 21(69) 84 1017 / 30.04
 07:55 Overcast  W 3/0 (3/0) 20(68) 87 1017 / 30.02
 07:26 Overcast  W 2/0 (2/0) 20(67) 86 1016 / 30.01
 06:55 Overcast Rain SSE 8/0 (9/0) 20(68) 89 1015 / 29.98
 05:55 Overcast Rain S 6/0 (7/0) 20(68) 89 1016 / 30.01
 04:55 Overcast Rain S 7/0 (8/0) 20(68) 86 1017 / 30.02
 03:55 Overcast Rain SSE 9/0 (10/0) 20(69) 89 1016 / 30.00
 02:55 Overcast Rain SE 6/0 (7/0) 20(68) 92 1017 / 30.02
 01:55 Overcast Rain ESE 6/0 (7/0) 20(68) 92 1017 / 30.03
 00:55 Overcast Rain E 5/0 (6/0) 20(68) 90 1018 / 30.05
 23:55 Overcast Rain ENE 5/0 (6/0) 20(68) 90 1018 / 30.06
 22:55 Overcast Rain NNE 5/0 (6/0) 20(69) 88 1018 / 30.07
 21:55 Overcast Rain NNE 6/0 (7/0) 20(69) 88 1018 / 30.06
 20:55 Overcast Rain N 5/0 (6/0) 21(69) 88 1018 / 30.05
 19:55 Overcast Rain NNE 4/0 (5/0) 20(69) 87 1017 / 30.02
 18:55 Overcast Rain N 8/0 (9/0) 21(70) 83 1016 / 30.01
 17:55 Overcast Showers N 8/0 (9/0) 21(70) 86 1017 / 30.02
 17:27 Overcast  NNW 7/0 (8/0) 22(71) 88 1016 / 30.00
 17:17 Overcast Showers NNW 9/0 (10/0) 22(71) 87 1016 / 30.00
 17:11 Overcast Showers NW 10/0 (12/0) 22(72) 87 1016 / 29.99
 17:05 Overcast  W 11/0 (13/0) 22(72) 85 1016 / 29.99
 16:55 Overcast Showers W 13/0 (15/0) 22(72) 85 1016 / 29.99
 16:03 Mostly Cloudy  W 14/0 (16/0) 23(74) 84 1016 / 29.99
 15:55 Overcast  W 14/0 (16/0) 23(74) 84 1016 / 29.99
 15:35 Overcast  W 15/0 (17/0) 23(73) 86 1016 / 30.00
 14:55 Overcast  W 16/0 (18/0) 23(74) 88 1016 / 30.01
 14:39 Overcast Showers W 18/0 (21/0) 23(73) 90 1016 / 30.00
 14:31 Overcast Rain W 19/0 (22/0) 23(73) 91 1016 / 30.00
 14:17 Overcast Showers W 18/0 (21/0) 24(74) 87 1016 / 30.00
 14:06 Overcast Showers W 19/30 (22/35) 24(75) 89 1016 / 30.00
 13:55 Mostly Cloudy Showers W 18/0 (21/0) 24(75) 89 1016 / 30.00
 13:38 Overcast Showers WSW 20/0 (23/0) 23(74) 89 1016 / 30.00
 13:34 Overcast Showers WSW 20/0 (23/0) 24(75) 90 1016 / 30.00
 12:57 Mostly Cloudy Showers WSW 18/0 (21/0) 24(75) 91 1016 / 30.00
 12:55 Overcast Showers WSW 20/0 (23/0) 25(76) 85 1016 / 30.00
 12:52 Overcast Showers WSW 20/0 (23/0) 24(76) 87 1016 / 30.01
 11:55 Mostly Cloudy Showers WSW 20/0 (23/0) 25(77) 81 1016 / 30.01
 11:40 Mostly Cloudy Showers WSW 22/0 (25/0) 25(77) 81 1016 / 30.01
 11:33 Overcast Showers WSW 19/29 (22/33) 25(77) 81 1016 / 30.00
 11:28 Mostly Cloudy Showers W 18/0 (21/0) 25(76) 82 1016 / 30.00
 10:55 Mostly Cloudy  WSW 20/0 (23/0) 25(77) 81 1016 / 30.00
 09:55 Mostly Cloudy  WSW 18/0 (21/0) 24(76) 81 1016 / 30.00
 08:55 Mostly Cloudy  SW 19/0 (22/0) 24(75) 84 1016 / 29.99
 07:55 Mostly Cloudy  SW 17/0 (20/0) 24(75) 84 1016 / 30.00
 06:55 Mostly Cloudy  SW 17/0 (20/0) 23(74) 87 1016 / 30.01
 06:27 Mostly Cloudy  SW 18/0 (21/0) 23(74) 88 1016 / 30.00
 05:55 Mostly Cloudy  SW 17/0 (20/0) 23(74) 88 1016 / 30.00
 04:55 Mostly Cloudy  SW 15/0 (17/0) 23(74) 88 1016 / 30.01
 04:35 Mostly Cloudy  SW 15/0 (17/0) 23(74) 89 1016 / 30.01
 03:55 Mostly Cloudy  SW 15/0 (17/0) 23(73) 90 1016 / 30.01
 03:32 Mostly Cloudy  SW 16/0 (18/0) 23(73) 91 1017 / 30.02
 03:16 Mostly Cloudy  SW 16/0 (18/0) 23(73) 92 1017 / 30.03
 02:55 Mostly Cloudy Showers SSW 18/0 (21/0) 23(73) 92 1017 / 30.03
 01:55 Mostly Cloudy Showers SSW 15/0 (17/0) 23(73) 92 1018 / 30.06
 01:38 Mostly Cloudy  SSW 15/0 (17/0) 23(73) 92 1018 / 30.07
 00:55 Mostly Cloudy  SSW 15/0 (17/0) 23(73) 93 1019 / 30.08
 00:31 Mostly Cloudy  SSW 13/0 (15/0) 23(73) 92 1019 / 30.08
 23:55 Mostly Cloudy  SW 11/0 (13/0) 23(73) 92 1019 / 30.10
 23:29 Mostly Cloudy Showers SW 10/0 (12/0) 23(73) 92 1019 / 30.10
 22:55 Mostly Cloudy Showers SW 10/0 (12/0) 23(73) 91 1020 / 30.12
 21:55 Mostly Cloudy  SW 10/0 (12/0) 23(73) 91 1020 / 30.12
 21:37 Mostly Cloudy  SW 10/0 (12/0) 23(73) 91 1020 / 30.12
 20:55 Mostly Cloudy  SW 9/0 (10/0) 23(74) 88 1020 / 30.12
 20:08 Mostly Cloudy  SW 10/0 (12/0) 23(74) 89 1020 / 30.12
 19:55 Mostly Cloudy  SW 9/0 (10/0) 23(74) 88 1020 / 30.11
 19:43 Mostly Cloudy  WSW 10/0 (12/0) 23(74) 88 1020 / 30.11
 18:55 Mostly Cloudy Showers WSW 10/0 (12/0) 24(74) 88 1020 / 30.11
 17:55 Mostly Cloudy Showers WSW 12/0 (14/0) 24(76) 85 1020 / 30.12
 16:55 Mostly Cloudy  WSW 13/0 (15/0) 25(76) 84 1020 / 30.11
Island AWOS